createdAt,value
2022-07-25T00:00:08.844Z,1008.97
2022-07-25T00:01:08.847Z,1008.97
2022-07-25T00:02:09.104Z,1008.94
2022-07-25T00:03:09.381Z,1008.95
2022-07-25T00:04:09.577Z,1008.97
2022-07-25T00:05:08.898Z,1008.95
2022-07-25T00:06:13.536Z,1008.95
2022-07-25T00:07:08.927Z,1008.90
2022-07-25T00:08:08.944Z,1008.91
2022-07-25T00:09:08.959Z,1008.89
2022-07-25T00:10:08.970Z,1008.90
2022-07-25T00:11:11.863Z,1008.87
2022-07-25T00:12:08.990Z,1008.85
2022-07-25T00:13:09.009Z,1008.83
2022-07-25T00:14:09.469Z,1008.80
2022-07-25T00:15:09.031Z,1008.78
2022-07-25T00:16:09.110Z,1008.79
2022-07-25T00:17:11.747Z,1008.78
2022-07-25T00:18:09.075Z,1008.76
2022-07-25T00:19:09.089Z,1008.71
2022-07-25T00:20:09.093Z,1008.71
2022-07-25T00:21:09.108Z,1008.71
2022-07-25T00:22:09.128Z,1008.67
2022-07-25T00:23:09.337Z,1008.65
2022-07-25T00:24:09.840Z,1008.70
2022-07-25T00:25:09.173Z,1008.69
2022-07-25T00:26:09.175Z,1008.66
2022-07-25T00:27:09.193Z,1008.66
2022-07-25T00:28:09.204Z,1008.67
2022-07-25T00:29:10.027Z,1008.68
2022-07-25T00:30:09.231Z,1008.67
2022-07-25T00:31:09.270Z,1008.65
2022-07-25T00:32:09.257Z,1008.67
2022-07-25T00:33:09.263Z,1008.67
2022-07-25T00:34:09.938Z,1008.64
2022-07-25T00:35:09.299Z,1008.61
2022-07-25T00:36:09.309Z,1008.62
2022-07-25T00:37:09.320Z,1008.65
2022-07-25T00:38:09.329Z,1008.63
2022-07-25T00:39:09.341Z,1008.62
2022-07-25T00:40:09.353Z,1008.63
2022-07-25T00:41:09.373Z,1008.64
2022-07-25T00:42:12.000Z,1008.58
2022-07-25T00:43:09.796Z,1008.61
2022-07-25T00:44:09.744Z,1008.60
2022-07-25T00:45:09.425Z,1008.61
2022-07-25T00:46:09.503Z,1008.60
2022-07-25T00:47:09.442Z,1008.59
2022-07-25T00:48:09.455Z,1008.60
2022-07-25T00:49:09.587Z,1008.58
2022-07-25T00:50:09.884Z,1008.61
2022-07-25T00:51:09.494Z,1008.58
2022-07-25T00:52:12.127Z,1008.54
2022-07-25T00:53:09.520Z,1008.58
2022-07-25T00:54:09.546Z,1008.56
2022-07-25T00:55:09.551Z,1008.52
2022-07-25T00:56:09.563Z,1008.52
2022-07-25T00:57:09.570Z,1008.48
2022-07-25T00:58:09.581Z,1008.47
2022-07-25T00:59:09.602Z,1008.47
2022-07-25T01:00:09.613Z,1008.45
2022-07-25T01:01:12.284Z,1008.42
2022-07-25T01:02:52.252Z,1008.41
2022-07-25T01:03:52.201Z,1008.39
2022-07-25T01:04:52.205Z,1008.37
2022-07-25T01:05:53.862Z,1008.37
2022-07-25T01:06:52.232Z,1008.37
2022-07-25T01:07:52.244Z,1008.36
2022-07-25T01:08:52.265Z,1008.35
2022-07-25T01:09:52.275Z,1008.37
2022-07-25T01:10:52.291Z,1008.32
2022-07-25T01:11:56.130Z,1008.33
2022-07-25T01:12:52.321Z,1008.32
2022-07-25T01:13:52.318Z,1008.29
2022-07-25T01:14:52.331Z,1008.29
2022-07-25T01:15:52.378Z,1008.32
2022-07-25T01:17:44.928Z,1008.36
2022-07-25T01:18:44.937Z,1008.33
2022-07-25T01:19:44.959Z,1008.35
2022-07-25T01:20:45.171Z,1008.32
2022-07-25T01:21:44.976Z,1008.32
2022-07-25T01:22:44.991Z,1008.28
2022-07-25T01:23:45.009Z,1008.27
2022-07-25T01:24:45.014Z,1008.25
2022-07-25T01:28:10.891Z,1008.21
2022-07-25T01:29:10.904Z,1008.20
2022-07-25T01:30:53.512Z,1008.18
2022-07-25T01:31:53.481Z,1008.17
2022-07-25T01:41:04.576Z,1008.12
2022-07-25T01:42:04.587Z,1008.16
2022-07-25T01:43:04.586Z,1008.09
2022-07-25T01:44:04.886Z,1008.10
2022-07-25T01:45:04.614Z,1008.08
2022-07-25T01:48:30.506Z,1008.05
2022-07-25T01:50:48.125Z,1008.00
2022-07-25T01:51:48.127Z,1008.00
2022-07-25T01:52:48.148Z,1008.02
2022-07-25T01:53:48.158Z,1007.99
2022-07-25T01:54:48.171Z,1008.01
2022-07-25T01:55:48.175Z,1007.97
2022-07-25T01:56:48.519Z,1008.02
2022-07-25T01:57:49.447Z,1007.98
2022-07-25T01:58:48.212Z,1007.95
2022-07-25T01:59:48.225Z,1007.95
2022-07-25T02:00:48.236Z,1007.91
2022-07-25T02:01:48.311Z,1007.93
2022-07-25T02:02:48.267Z,1007.93
2022-07-25T02:03:48.275Z,1007.89
2022-07-25T02:04:48.335Z,1007.91
2022-07-25T02:05:48.306Z,1007.92
2022-07-25T02:06:48.316Z,1007.87
2022-07-25T02:07:48.331Z,1007.86
2022-07-25T02:08:48.334Z,1007.84
2022-07-25T02:09:50.147Z,1007.85
2022-07-25T02:10:48.364Z,1007.82
2022-07-25T02:11:48.380Z,1007.81
2022-07-25T02:12:48.390Z,1007.85
2022-07-25T02:13:48.405Z,1007.82
2022-07-25T02:14:48.409Z,1007.84
2022-07-25T02:15:48.427Z,1007.84
2022-07-25T02:16:48.520Z,1007.83
2022-07-25T02:17:48.452Z,1007.78
2022-07-25T02:18:48.463Z,1007.77
2022-07-25T02:19:48.477Z,1007.75
2022-07-25T02:20:48.541Z,1007.73
2022-07-25T02:21:48.501Z,1007.73
2022-07-25T02:22:48.504Z,1007.73
2022-07-25T02:23:48.518Z,1007.73
2022-07-25T02:24:48.536Z,1007.71
2022-07-25T02:25:48.549Z,1007.71
2022-07-25T02:26:48.561Z,1007.70
2022-07-25T02:27:48.568Z,1007.66
2022-07-25T02:28:48.586Z,1007.65
2022-07-25T02:29:48.591Z,1007.61
2022-07-25T02:30:48.695Z,1007.62
2022-07-25T02:31:48.630Z,1007.62
2022-07-25T02:32:48.636Z,1007.59
2022-07-25T02:33:48.641Z,1007.58
2022-07-25T02:34:48.857Z,1007.60
2022-07-25T02:35:48.665Z,1007.58
2022-07-25T02:36:48.687Z,1007.58
2022-07-25T02:37:48.695Z,1007.53
2022-07-25T02:38:48.705Z,1007.53
2022-07-25T02:39:48.713Z,1007.57
2022-07-25T02:40:48.727Z,1007.58
2022-07-25T02:41:48.746Z,1007.55
2022-07-25T02:42:48.751Z,1007.54
2022-07-25T02:43:48.768Z,1007.51
2022-07-25T02:44:48.783Z,1007.49
2022-07-25T02:45:48.885Z,1007.53
2022-07-25T02:46:48.799Z,1007.53
2022-07-25T02:47:48.819Z,1007.53
2022-07-25T02:48:48.966Z,1007.53
2022-07-25T02:49:48.834Z,1007.54
2022-07-25T02:50:48.858Z,1007.52
2022-07-25T02:51:48.861Z,1007.48
2022-07-25T02:52:48.872Z,1007.50
2022-07-25T02:53:58.261Z,1007.49
2022-07-25T02:54:48.904Z,1007.44
2022-07-25T02:55:48.910Z,1007.49
2022-07-25T02:56:48.920Z,1007.50
2022-07-25T02:57:48.940Z,1007.49
2022-07-25T02:58:48.949Z,1007.53
2022-07-25T02:59:48.964Z,1007.46
2022-07-25T03:00:49.004Z,1007.45
2022-07-25T03:01:49.049Z,1007.46
2022-07-25T03:02:48.999Z,1007.42
2022-07-25T03:03:49.076Z,1007.41
2022-07-25T03:04:49.026Z,1007.41
2022-07-25T03:05:49.074Z,1007.42
2022-07-25T03:06:49.048Z,1007.45
2022-07-25T03:07:49.060Z,1007.50
2022-07-25T03:08:49.066Z,1007.48
2022-07-25T03:09:49.078Z,1007.45
2022-07-25T03:10:49.097Z,1007.48
2022-07-25T03:11:49.106Z,1007.47
2022-07-25T03:12:49.120Z,1007.45
2022-07-25T03:13:49.126Z,1007.46
2022-07-25T03:14:49.144Z,1007.48
2022-07-25T03:15:49.147Z,1007.47
2022-07-25T03:16:49.231Z,1007.45
2022-07-25T03:17:49.172Z,1007.46
2022-07-25T03:18:49.193Z,1007.46
2022-07-25T03:19:49.204Z,1007.44
2022-07-25T03:20:49.214Z,1007.48
2022-07-25T03:21:49.227Z,1007.43
2022-07-25T03:22:49.241Z,1007.43
2022-07-25T03:23:52.709Z,1007.43
2022-07-25T03:24:49.256Z,1007.40
2022-07-25T03:25:49.280Z,1007.38
2022-07-25T03:26:49.281Z,1007.36
2022-07-25T03:27:49.295Z,1007.34
2022-07-25T03:28:49.305Z,1007.37
2022-07-25T03:29:49.325Z,1007.36
2022-07-25T03:30:49.337Z,1007.33
2022-07-25T03:31:49.394Z,1007.29
2022-07-25T03:32:49.352Z,1007.30
2022-07-25T03:33:49.366Z,1007.32
2022-07-25T03:34:49.384Z,1007.34
2022-07-25T03:35:49.398Z,1007.33
2022-07-25T03:36:49.402Z,1007.33
2022-07-25T03:37:49.414Z,1007.32
2022-07-25T03:38:49.424Z,1007.28
2022-07-25T03:39:49.446Z,1007.27
2022-07-25T03:40:49.450Z,1007.27
2022-07-25T03:41:49.461Z,1007.23
2022-07-25T03:42:49.474Z,1007.26
2022-07-25T03:43:49.494Z,1007.21
2022-07-25T03:44:49.506Z,1007.21
2022-07-25T03:45:49.663Z,1007.20
2022-07-25T03:46:49.522Z,1007.22
2022-07-25T03:47:49.540Z,1007.17
2022-07-25T03:48:49.576Z,1007.18
2022-07-25T03:49:49.555Z,1007.18
2022-07-25T03:50:49.581Z,1007.15
2022-07-25T03:51:49.581Z,1007.16
2022-07-25T03:52:49.600Z,1007.13
2022-07-25T03:53:49.603Z,1007.08
2022-07-25T03:54:49.616Z,1007.09
2022-07-25T03:55:49.628Z,1007.08
2022-07-25T03:56:49.650Z,1007.03
2022-07-25T03:57:49.658Z,1006.98
2022-07-25T03:58:49.664Z,1006.97
2022-07-25T03:59:49.677Z,1006.98
2022-07-25T04:00:49.719Z,1006.96
2022-07-25T04:01:49.803Z,1006.93
2022-07-25T04:02:49.880Z,1006.97
2022-07-25T04:03:49.724Z,1006.92
2022-07-25T04:04:49.736Z,1006.89
2022-07-25T04:05:49.748Z,1006.93
2022-07-25T04:06:49.764Z,1006.90
2022-07-25T04:07:49.777Z,1006.90
2022-07-25T04:08:49.781Z,1006.89
2022-07-25T04:09:49.803Z,1006.88
2022-07-25T04:10:49.835Z,1006.84
2022-07-25T04:11:49.894Z,1006.83
2022-07-25T04:12:49.845Z,1006.83
2022-07-25T04:13:49.897Z,1006.77
2022-07-25T04:14:49.851Z,1006.79
2022-07-25T04:15:49.872Z,1006.79
2022-07-25T04:16:50.005Z,1006.75
2022-07-25T04:17:49.893Z,1006.78
2022-07-25T04:18:49.907Z,1006.78
2022-07-25T04:19:49.917Z,1006.77
2022-07-25T04:20:49.933Z,1006.76
2022-07-25T04:21:49.941Z,1006.73
2022-07-25T04:22:49.958Z,1006.81
2022-07-25T04:23:49.975Z,1006.74
2022-07-25T04:24:49.978Z,1006.68
2022-07-25T04:25:50.067Z,1006.74
2022-07-25T04:26:50.006Z,1006.73
2022-07-25T04:27:50.019Z,1006.69
2022-07-25T04:28:50.025Z,1006.72
2022-07-25T04:29:50.036Z,1006.66
2022-07-25T04:30:50.039Z,1006.67
2022-07-25T04:31:50.152Z,1006.63
2022-07-25T04:32:50.063Z,1006.58
2022-07-25T04:33:50.075Z,1006.57
2022-07-25T04:34:50.085Z,1006.59
2022-07-25T04:35:50.105Z,1006.57
2022-07-25T04:36:50.115Z,1006.58
2022-07-25T04:37:50.129Z,1006.54
2022-07-25T04:38:50.138Z,1006.56
2022-07-25T04:39:50.144Z,1006.59
2022-07-25T04:40:50.155Z,1006.61
2022-07-25T04:41:50.175Z,1006.59
2022-07-25T04:42:50.178Z,1006.56
2022-07-25T04:43:50.191Z,1006.51
2022-07-25T04:45:52.853Z,1006.51
2022-07-25T04:46:52.802Z,1006.54
2022-07-25T04:48:46.387Z,1006.46
2022-07-25T04:49:45.392Z,1006.46
2022-07-25T04:50:45.406Z,1006.42
2022-07-25T04:51:45.415Z,1006.44
2022-07-25T04:53:27.973Z,1006.39
2022-07-25T04:54:32.023Z,1006.35
2022-07-25T04:55:27.997Z,1006.37
2022-07-25T04:56:28.005Z,1006.36
2022-07-25T04:57:28.027Z,1006.31
2022-07-25T05:00:10.593Z,1006.29
2022-07-25T05:03:36.473Z,1006.27
2022-07-25T05:04:36.481Z,1006.22
2022-07-25T05:05:37.296Z,1006.27
2022-07-25T05:06:36.505Z,1006.23
2022-07-25T05:07:36.515Z,1006.17
2022-07-25T05:08:36.521Z,1006.23
2022-07-25T05:09:36.532Z,1006.21
2022-07-25T05:10:36.543Z,1006.21
2022-07-25T05:11:36.553Z,1006.20
2022-07-25T05:12:36.568Z,1006.18
2022-07-25T05:13:36.585Z,1006.15
2022-07-25T05:14:36.598Z,1006.19
2022-07-25T05:15:36.607Z,1006.21
2022-07-25T05:16:36.669Z,1006.17
2022-07-25T05:17:36.624Z,1006.16
2022-07-25T05:18:36.637Z,1006.15
2022-07-25T05:19:36.857Z,1006.15
2022-07-25T05:20:36.666Z,1006.14
2022-07-25T05:21:36.673Z,1006.14
2022-07-25T05:22:36.683Z,1006.09
2022-07-25T05:23:36.694Z,1006.10
2022-07-25T05:24:36.707Z,1006.08
2022-07-25T05:28:02.586Z,1006.09
2022-07-25T05:29:02.604Z,1006.09
2022-07-25T05:30:02.618Z,1006.05
2022-07-25T05:31:02.678Z,1006.10
2022-07-25T05:32:02.673Z,1006.05
2022-07-25T05:33:02.649Z,1006.07
2022-07-25T05:34:02.780Z,1006.07
2022-07-25T05:35:02.754Z,1006.05
2022-07-25T05:36:02.882Z,1006.03
2022-07-25T05:37:02.697Z,1006.05
2022-07-25T05:38:02.713Z,1006.03
2022-07-25T05:39:02.721Z,1006.01
2022-07-25T05:40:02.736Z,1006.04
2022-07-25T05:41:02.746Z,1006.01
2022-07-25T05:42:02.751Z,1006.02
2022-07-25T05:43:03.657Z,1006.02
2022-07-25T05:44:02.872Z,1006.00
2022-07-25T05:45:02.802Z,1005.99
2022-07-25T05:46:02.805Z,1006.01
2022-07-25T05:47:02.879Z,1005.93
2022-07-25T05:48:02.829Z,1005.96
2022-07-25T05:49:02.898Z,1005.92
2022-07-25T05:50:02.873Z,1005.94
2022-07-25T05:51:02.867Z,1005.89
2022-07-25T05:52:02.877Z,1005.91
2022-07-25T05:53:02.894Z,1005.90
2022-07-25T05:54:03.162Z,1005.87
2022-07-25T05:55:02.915Z,1005.88
2022-07-25T05:56:02.922Z,1005.88
2022-07-25T05:57:02.940Z,1005.84
2022-07-25T05:58:02.945Z,1005.87
2022-07-25T05:59:02.967Z,1005.86
2022-07-25T06:00:02.972Z,1005.83
2022-07-25T06:01:02.982Z,1005.84
2022-07-25T06:02:03.173Z,1005.83
2022-07-25T06:03:03.154Z,1005.79
2022-07-25T06:04:03.294Z,1005.81
2022-07-25T06:05:03.031Z,1005.84
2022-07-25T06:06:03.051Z,1005.82
2022-07-25T06:07:03.063Z,1005.78
2022-07-25T06:08:03.074Z,1005.82
2022-07-25T06:09:03.088Z,1005.79
2022-07-25T06:10:03.092Z,1005.76
2022-07-25T06:11:03.107Z,1005.77
2022-07-25T06:12:03.124Z,1005.73
2022-07-25T06:13:03.130Z,1005.70
2022-07-25T06:14:03.506Z,1005.72
2022-07-25T06:15:03.187Z,1005.71
2022-07-25T06:16:03.423Z,1005.62
2022-07-25T06:17:03.185Z,1005.65
2022-07-25T06:18:03.199Z,1005.64
2022-07-25T06:19:03.210Z,1005.58
2022-07-25T06:20:03.224Z,1005.58
2022-07-25T06:21:03.236Z,1005.58
2022-07-25T06:23:40.910Z,1005.53
2022-07-25T06:24:40.913Z,1005.54
2022-07-25T06:25:40.929Z,1005.46
2022-07-25T06:26:40.945Z,1005.49
2022-07-25T06:27:40.957Z,1005.51
2022-07-25T06:28:40.968Z,1005.47
2022-07-25T06:29:40.977Z,1005.45
2022-07-25T06:30:41.000Z,1005.46
2022-07-25T06:31:41.041Z,1005.51
2022-07-25T06:32:41.018Z,1005.51
2022-07-25T06:33:41.026Z,1005.53
2022-07-25T06:34:41.045Z,1005.46
2022-07-25T06:35:41.049Z,1005.48
2022-07-25T06:36:41.062Z,1005.44
2022-07-25T06:37:41.095Z,1005.40
2022-07-25T06:38:41.089Z,1005.42
2022-07-25T06:39:45.447Z,1005.42
2022-07-25T06:40:41.114Z,1005.39
2022-07-25T06:41:41.133Z,1005.35
2022-07-25T06:43:23.687Z,1005.31
2022-07-25T06:44:23.698Z,1005.31
2022-07-25T06:45:25.331Z,1005.30
2022-07-25T06:46:23.810Z,1005.27
2022-07-25T06:47:23.745Z,1005.28
2022-07-25T06:48:23.805Z,1005.24
2022-07-25T06:49:23.763Z,1005.27
2022-07-25T06:50:23.775Z,1005.25
2022-07-25T06:51:23.794Z,1005.25
2022-07-25T06:52:23.810Z,1005.23
2022-07-25T06:53:23.814Z,1005.26
2022-07-25T06:54:23.835Z,1005.24
2022-07-25T06:55:23.848Z,1005.21
2022-07-25T06:56:23.852Z,1005.21
2022-07-25T06:57:23.864Z,1005.18
2022-07-25T06:58:25.853Z,1005.29
2022-07-25T06:59:23.890Z,1005.21
2022-07-25T07:00:24.043Z,1005.21
2022-07-25T07:01:23.963Z,1005.19
2022-07-25T07:02:23.936Z,1005.18
2022-07-25T07:03:24.000Z,1005.23
2022-07-25T07:04:23.963Z,1005.16
2022-07-25T07:05:23.968Z,1005.19
2022-07-25T07:10:39.996Z,1005.10
2022-07-25T07:11:40.017Z,1005.06
2022-07-25T07:12:40.029Z,1005.05
2022-07-25T07:13:40.036Z,1005.03
2022-07-25T07:14:40.045Z,1004.95
2022-07-25T07:15:40.066Z,1004.97
2022-07-25T07:16:40.138Z,1004.94
2022-07-25T07:17:40.093Z,1004.94
2022-07-25T07:18:40.099Z,1004.84
2022-07-25T07:19:40.110Z,1004.91
2022-07-25T07:20:40.122Z,1004.89
2022-07-25T07:21:40.136Z,1004.92
2022-07-25T07:22:40.156Z,1004.89
2022-07-25T07:23:40.163Z,1004.90
2022-07-25T07:24:44.042Z,1004.85
2022-07-25T07:25:40.191Z,1004.89
2022-07-25T07:26:40.205Z,1004.87
2022-07-25T07:27:40.221Z,1004.84
2022-07-25T07:28:40.238Z,1004.79
2022-07-25T07:29:40.243Z,1004.79
2022-07-25T07:31:13.350Z,1004.85
2022-07-25T07:31:40.301Z,1004.81
2022-07-25T07:32:40.290Z,1004.80
2022-07-25T07:33:40.304Z,1004.78
2022-07-25T07:34:40.316Z,1004.78
2022-07-25T07:35:40.321Z,1004.77
2022-07-25T07:36:40.344Z,1004.71
2022-07-25T07:52:03.807Z,1004.53
2022-07-25T07:53:03.804Z,1004.57
2022-07-25T07:54:03.820Z,1004.51
2022-07-25T07:55:03.831Z,1004.56
2022-07-25T07:56:03.855Z,1004.48
2022-07-25T07:57:03.865Z,1004.49
2022-07-25T07:58:03.874Z,1004.52
2022-07-25T07:59:04.322Z,1004.49
2022-07-25T08:00:03.897Z,1004.49
2022-07-25T08:01:03.914Z,1004.45
2022-07-25T08:02:04.041Z,1004.47
2022-07-25T08:03:04.090Z,1004.45
2022-07-25T08:04:03.960Z,1004.45
2022-07-25T08:05:03.976Z,1004.45
2022-07-25T08:06:03.979Z,1004.46
2022-07-25T08:07:04.002Z,1004.42
2022-07-25T08:08:04.007Z,1004.39
2022-07-25T08:09:04.363Z,1004.41
2022-07-25T08:10:04.044Z,1004.44
2022-07-25T08:11:04.056Z,1004.42
2022-07-25T08:12:04.071Z,1004.37
2022-07-25T08:13:04.086Z,1004.37
2022-07-25T08:14:04.553Z,1004.36
2022-07-25T08:15:04.125Z,1004.34
2022-07-25T08:16:04.240Z,1004.33
2022-07-25T08:17:04.144Z,1004.31
2022-07-25T08:18:04.154Z,1004.28
2022-07-25T08:19:04.163Z,1004.30
2022-07-25T08:20:20.993Z,1004.30
2022-07-25T08:21:04.232Z,1004.29
2022-07-25T08:22:04.213Z,1004.27
2022-07-25T08:23:04.222Z,1004.26
2022-07-25T08:24:04.705Z,1004.27
2022-07-25T08:25:04.259Z,1004.25
2022-07-25T08:26:04.274Z,1004.21
2022-07-25T08:27:04.288Z,1004.17
2022-07-25T08:28:04.296Z,1004.20
2022-07-25T08:29:18.665Z,1004.11
2022-07-25T08:30:04.328Z,1004.13
2022-07-25T08:31:04.468Z,1004.11
2022-07-25T08:32:04.362Z,1004.12
2022-07-25T08:33:04.376Z,1004.08
2022-07-25T08:34:04.788Z,1004.04
2022-07-25T08:35:09.497Z,1003.99
2022-07-25T08:36:04.430Z,1004.02
2022-07-25T08:37:04.437Z,1004.00
2022-07-25T08:38:04.446Z,1003.99
2022-07-25T08:39:04.467Z,1003.98
2022-07-25T08:40:04.483Z,1003.95
2022-07-25T08:41:04.490Z,1003.91
2022-07-25T08:42:09.104Z,1003.93
2022-07-25T08:43:04.521Z,1003.93
2022-07-25T08:44:04.851Z,1003.91
2022-07-25T08:45:07.181Z,1003.86
2022-07-25T08:46:04.595Z,1003.82
2022-07-25T08:48:07.840Z,1003.84
2022-07-25T12:23:28.594Z,1000.56
2022-07-25T12:24:28.602Z,1000.51
2022-07-25T12:25:30.966Z,1000.54
2022-07-25T12:26:28.636Z,1000.47
2022-07-25T12:27:28.656Z,1000.49
2022-07-25T12:28:28.681Z,1000.50
2022-07-25T12:29:28.695Z,1000.53
2022-07-25T12:30:28.864Z,1000.47
2022-07-25T12:31:28.890Z,1000.44
2022-07-25T12:32:31.577Z,1000.48
2022-07-25T12:34:21.360Z,1000.46
2022-07-25T12:35:22.789Z,1000.44
2022-07-25T12:37:03.955Z,1000.39
2022-07-25T13:08:58.396Z,1000.18
2022-07-25T13:09:58.407Z,1000.15
2022-07-25T13:10:58.437Z,1000.21
2022-07-25T13:11:58.452Z,1000.17
2022-07-25T13:12:58.475Z,1000.10
2022-07-25T13:13:58.502Z,1000.11
2022-07-25T13:14:58.519Z,1000.14
2022-07-25T13:15:58.539Z,1000.19
2022-07-25T13:17:41.124Z,1000.16
2022-07-25T13:18:41.142Z,1000.17
2022-07-25T13:19:41.168Z,1000.13
2022-07-25T13:20:41.239Z,1000.09
2022-07-25T13:21:41.205Z,1000.14
2022-07-25T13:22:41.224Z,1000.14
2022-07-25T13:23:41.248Z,1000.20
2022-07-25T13:24:41.274Z,1000.21
2022-07-25T13:25:41.291Z,1000.26
2022-07-25T13:26:41.319Z,1000.17
2022-07-25T13:27:41.337Z,1000.18
2022-07-25T13:28:41.353Z,1000.21
2022-07-25T13:29:41.378Z,1000.26
2022-07-25T13:30:41.406Z,1000.23
2022-07-25T13:31:41.610Z,1000.11
2022-07-25T13:32:41.441Z,1000.17
2022-07-25T13:33:41.463Z,1000.18
2022-07-25T13:34:41.488Z,1000.12
2022-07-25T13:35:41.508Z,1000.15
2022-07-25T13:36:41.537Z,1000.16
2022-07-25T13:37:41.557Z,1000.15
2022-07-25T13:38:42.994Z,1000.08
2022-07-25T13:39:41.595Z,1000.10
2022-07-25T13:40:41.629Z,1000.18
2022-07-25T13:41:41.639Z,1000.19
2022-07-25T13:42:41.659Z,1000.17
2022-07-25T14:19:21.062Z,1000.15
2022-07-25T14:21:03.691Z,1000.12
2022-07-25T14:22:03.715Z,1000.06
2022-07-25T14:23:03.739Z,999.98
2022-07-25T14:24:03.769Z,999.95
2022-07-25T14:25:03.788Z,1000.04
2022-07-25T14:26:07.236Z,999.94
2022-07-25T14:29:30.671Z,1000.05
2022-07-25T14:30:33.962Z,999.97
2022-07-25T14:31:31.200Z,999.97
2022-07-25T14:32:30.163Z,1000.05
2022-07-25T14:33:29.988Z,1000.04
2022-07-25T14:34:31.022Z,1000.00
2022-07-25T14:35:44.178Z,1000.04
2022-07-25T14:37:12.613Z,1000.00
2022-07-25T14:38:12.627Z,999.98
2022-07-25T14:39:12.645Z,999.96
2022-07-25T14:40:12.675Z,999.97
2022-07-25T14:41:13.369Z,1000.00
2022-07-25T14:42:12.721Z,1000.00
2022-07-25T14:43:12.740Z,999.99
2022-07-25T14:44:12.755Z,1000.02
2022-07-25T14:45:12.777Z,1000.04
2022-07-25T14:46:12.805Z,1000.05
2022-07-25T14:47:12.962Z,1000.03
2022-07-25T14:48:12.847Z,1000.05
2022-07-25T14:49:12.903Z,1000.04
2022-07-25T14:50:12.889Z,1000.02
2022-07-25T14:51:55.466Z,1000.05
2022-07-25T14:52:55.489Z,1000.02
2022-07-25T14:53:55.526Z,999.98
2022-07-25T14:54:55.522Z,1000.01
2022-07-25T14:55:55.551Z,999.94
2022-07-25T14:56:55.570Z,999.96
2022-07-25T14:57:55.594Z,999.98
2022-07-25T14:58:55.612Z,999.99
2022-07-25T14:59:55.635Z,999.91
2022-07-25T15:00:55.759Z,999.91
2022-07-25T15:01:55.670Z,999.90
2022-07-25T15:02:55.696Z,999.90
2022-07-25T15:03:55.718Z,999.90
2022-07-25T15:04:55.805Z,999.92
2022-07-25T15:05:55.759Z,999.98
2022-07-25T15:06:55.779Z,999.96
2022-07-25T15:07:55.794Z,999.97
2022-07-25T15:08:55.812Z,999.93
2022-07-25T15:09:55.841Z,999.96
2022-07-25T15:10:55.858Z,999.97
2022-07-25T15:11:55.872Z,999.98
2022-07-25T15:13:13.957Z,999.96
2022-07-25T15:13:55.913Z,999.94
2022-07-25T15:14:55.933Z,999.91
2022-07-25T15:15:55.992Z,999.91
2022-07-25T15:16:56.017Z,999.93
2022-07-25T15:17:55.997Z,999.92
2022-07-25T15:19:15.955Z,999.93
2022-07-25T15:19:56.032Z,999.95
2022-07-25T15:20:59.897Z,999.90
2022-07-25T15:21:56.072Z,999.98
2022-07-25T15:22:56.092Z,1000.03
2022-07-25T15:23:56.111Z,1000.07
2022-07-25T15:26:04.041Z,1000.09
2022-07-25T15:26:56.167Z,1000.06
2022-07-25T15:27:56.190Z,1000.19
2022-07-25T15:28:56.215Z,1000.18
2022-07-25T15:29:56.227Z,1000.18
2022-07-25T15:30:56.252Z,1000.17
2022-07-25T15:31:56.366Z,1000.23
2022-07-25T15:32:56.286Z,1000.24
2022-07-25T15:33:56.313Z,1000.33
2022-07-25T15:36:25.736Z,1000.62
2022-07-25T15:37:21.444Z,1000.68
2022-07-25T15:38:21.465Z,1000.80
2022-07-25T15:39:21.482Z,1000.81
2022-07-25T15:40:21.503Z,1000.86
2022-07-25T15:41:21.527Z,1000.90
2022-07-25T15:42:24.544Z,1000.90
2022-07-25T15:43:21.563Z,1000.92
2022-07-25T15:44:21.575Z,1000.87
2022-07-25T15:45:36.988Z,1000.90
2022-07-25T15:46:24.273Z,1000.92
2022-07-25T15:47:21.630Z,1000.86
2022-07-25T15:48:21.647Z,1000.77
2022-07-25T15:49:21.694Z,1000.66
2022-07-25T15:50:21.684Z,1000.59
2022-07-25T15:51:21.714Z,1000.49
2022-07-25T15:52:21.726Z,1000.56
2022-07-25T15:53:21.758Z,1000.61
2022-07-25T15:55:39.450Z,1000.71
2022-07-25T15:56:42.097Z,1000.66
2022-07-25T15:58:22.036Z,1000.55
2022-07-25T15:59:23.061Z,1000.48
2022-07-25T16:00:26.117Z,1000.36
2022-07-25T16:01:22.234Z,1000.38
2022-07-25T16:02:22.104Z,1000.59
2022-07-25T16:03:22.121Z,1000.81
2022-07-25T16:04:22.224Z,1000.90
2022-07-25T16:05:22.153Z,1000.97
2022-07-25T16:06:22.173Z,1001.10
2022-07-25T16:07:22.190Z,1001.02
2022-07-25T16:08:22.208Z,1000.92
2022-07-25T16:09:22.212Z,1000.77
2022-07-25T16:10:22.232Z,1000.78
2022-07-25T16:11:22.255Z,1000.81
2022-07-25T16:12:25.288Z,1000.80
2022-07-25T16:13:22.284Z,1000.84
2022-07-25T16:14:22.295Z,1000.83
2022-07-25T16:15:23.733Z,1000.80
2022-07-25T16:16:22.440Z,1000.81
2022-07-25T16:17:22.349Z,1000.82
2022-07-25T16:18:22.366Z,1000.86
2022-07-25T16:19:22.376Z,1000.77
2022-07-25T16:20:22.416Z,1000.81
2022-07-25T16:21:22.434Z,1000.84
2022-07-25T16:22:22.447Z,1000.80
2022-07-25T16:23:25.070Z,1000.82
2022-07-25T16:24:22.466Z,1000.84
2022-07-25T16:25:22.497Z,1000.82
2022-07-25T16:26:22.496Z,1000.79
2022-07-25T16:27:22.508Z,1000.75
2022-07-25T16:28:22.523Z,1000.78
2022-07-25T16:29:22.542Z,1000.80
2022-07-25T16:30:22.563Z,1000.76
2022-07-25T16:31:22.621Z,1000.73
2022-07-25T16:32:22.592Z,1000.70
2022-07-25T16:33:22.613Z,1000.66
2022-07-25T16:34:27.138Z,1000.63
2022-07-25T16:35:22.648Z,1000.66
2022-07-25T16:36:22.661Z,1000.64
2022-07-25T16:37:22.678Z,1000.67
2022-07-25T16:38:22.689Z,1000.61
2022-07-25T16:39:22.709Z,1000.58
2022-07-25T16:40:25.996Z,1000.58
2022-07-25T16:41:22.759Z,1000.54
2022-07-25T16:42:22.757Z,1000.54
2022-07-25T16:43:22.774Z,1000.58
2022-07-25T16:44:22.799Z,1000.54
2022-07-25T16:45:22.809Z,1000.55
2022-07-25T16:46:28.171Z,1000.50
2022-07-25T16:47:22.843Z,1000.49
2022-07-25T16:48:22.858Z,1000.44
2022-07-25T16:49:22.956Z,1000.46
2022-07-25T16:50:22.897Z,1000.44
2022-07-25T16:51:22.909Z,1000.39
2022-07-25T16:52:22.935Z,1000.37
2022-07-25T16:53:22.942Z,1000.35
2022-07-25T16:54:22.967Z,1000.31
2022-07-25T16:55:22.984Z,1000.29
2022-07-25T16:56:22.999Z,1000.30
2022-07-25T16:57:25.011Z,1000.25
2022-07-25T16:58:23.035Z,1000.28
2022-07-25T16:59:23.050Z,1000.27
2022-07-25T17:00:23.061Z,1000.26
2022-07-25T17:01:23.120Z,1000.25
2022-07-25T17:02:28.880Z,1000.25
2022-07-25T17:03:23.111Z,1000.26
2022-07-25T17:04:23.189Z,1000.25
2022-07-25T17:05:23.278Z,1000.22
2022-07-25T17:06:23.165Z,1000.22
2022-07-25T17:07:23.177Z,1000.24
2022-07-25T17:08:23.199Z,1000.20
2022-07-25T17:09:23.209Z,1000.22
2022-07-25T17:10:23.225Z,1000.23
2022-07-25T17:11:23.246Z,1000.20
2022-07-25T17:12:23.271Z,1000.12
2022-07-25T17:13:23.281Z,1000.11
2022-07-25T17:14:27.861Z,1000.06
2022-07-25T17:15:23.315Z,1000.03
2022-07-25T17:16:23.403Z,999.97
2022-07-25T17:17:23.342Z,999.95
2022-07-25T17:18:23.361Z,999.93
2022-07-25T17:19:23.384Z,999.90
2022-07-25T17:20:23.399Z,999.92
2022-07-25T17:21:23.419Z,999.89
2022-07-25T17:22:23.430Z,999.91
2022-07-25T17:23:23.448Z,999.89
2022-07-25T17:24:23.455Z,999.89
2022-07-25T17:25:23.481Z,999.89
2022-07-25T17:26:23.494Z,999.88
2022-07-25T17:27:23.506Z,999.92
2022-07-25T17:28:23.530Z,999.88
2022-07-25T17:29:23.545Z,999.83
2022-07-25T17:30:23.562Z,999.85
2022-07-25T17:35:32.956Z,999.88
2022-07-25T17:42:44.900Z,999.87
2022-07-25T18:12:49.450Z,1000.09
2022-07-25T18:28:13.928Z,1000.70
2022-07-25T18:35:40.888Z,1001.05
2022-07-25T18:41:01.750Z,1001.14
2022-07-25T18:41:50.122Z,1001.18
2022-07-25T18:42:50.138Z,1001.19
2022-07-25T18:53:58.223Z,1001.47
2022-07-25T18:54:58.245Z,1001.49
2022-07-25T18:56:45.813Z,1001.57
2022-07-25T18:57:45.830Z,1001.60
2022-07-25T18:58:45.845Z,1001.59
2022-07-25T18:59:45.860Z,1001.66
2022-07-25T19:00:45.882Z,1001.59
2022-07-25T19:01:45.953Z,1001.59
2022-07-25T19:02:45.913Z,1001.67